KCKB/CKB METAR and TAF weather

Enter ICAO airport designator
Station Type Date Time Source
KCKB METAR 2022/06/26 07:53 UTC NOAA

KCKB 260753Z AUTO 00000KT 10SM CLR 22/19 A3008 RMK AO2 SLP168 T02170194 $


Station Type Date Time Source
KCKB Decoded METAR 2022/06/26 07:53 UTC NOAA

HARRISON/MARION REGIONAL, WV, United States (KCKB) 39-18N 080-13W 360M
Jun 26, 2022 - 03:53 AM EDT / 2022.06.26 0753 UTC
Wind: Calm:0
Visibility: 10 mile(s):0
Sky conditions: clear
Temperature: 71.1 F (21.7 C)
Dew Point: 66.9 F (19.4 C)
Relative Humidity: 86%
Pressure (altimeter): 30.08 in. Hg (1018 hPa)
ob: KCKB 260753Z AUTO 00000KT 10SM CLR 22/19 A3008 RMK AO2 SLP168 T02170194
cycle: 8

Station Type Date Time Source
KCKB TAF 2022/06/26 06:24 UTC NOAA

TAF KCKB 260521Z 2606/2706 00000KT P6SM SKC
FM260900 VRB03KT P6SM SCT090
FM261500 19006KT P6SM BKN050
FM261900 21008KT P6SM VCTS BKN050CB
FM262300 21006KT 5SM SHRA BR VCTS OVC040CB

Example: see airport list